createdAt,value
2018-10-02T00:00:15.403Z,1011.49
2018-10-02T00:01:21.857Z,1011.50
2018-10-02T00:02:30.776Z,1011.43
2018-10-02T00:03:34.779Z,1011.42
2018-10-02T00:04:38.481Z,1011.43
2018-10-02T00:05:35.202Z,1011.44
2018-10-02T00:06:57.433Z,1011.47
2018-10-02T00:08:59.498Z,1011.50
2018-10-02T00:10:06.880Z,1011.50
2018-10-02T00:11:07.401Z,1011.52
2018-10-02T00:12:14.476Z,1011.48
2018-10-02T00:13:25.852Z,1011.50
2018-10-02T00:15:33.037Z,1011.41
2018-10-02T00:16:34.580Z,1011.40
2018-10-02T00:17:45.760Z,1011.41
2018-10-02T00:18:49.752Z,1011.38
2018-10-02T00:20:07.580Z,1011.36
2018-10-02T00:20:54.792Z,1011.35
2018-10-02T00:22:18.042Z,1011.35
2018-10-02T00:23:18.460Z,1011.30
2018-10-02T00:24:09.661Z,1011.29
2018-10-02T00:25:16.953Z,1011.23
2018-10-02T00:26:25.045Z,1011.23
2018-10-02T00:27:23.625Z,1011.21
2018-10-02T00:29:44.627Z,1011.23
2018-10-02T00:30:47.309Z,1011.22
2018-10-02T00:31:57.736Z,1011.16
2018-10-02T00:32:52.436Z,1011.20
2018-10-02T00:34:05.656Z,1011.22
2018-10-02T00:35:13.752Z,1011.23
2018-10-02T00:36:17.244Z,1011.18
2018-10-02T00:37:26.675Z,1011.23
2018-10-02T00:38:36.617Z,1011.22
2018-10-02T00:39:35.602Z,1011.22
2018-10-02T00:41:47.907Z,1011.15
2018-10-02T00:43:50.793Z,1011.14
2018-10-02T00:44:56.637Z,1011.19
2018-10-02T00:46:13.237Z,1011.20
2018-10-02T00:47:09.353Z,1011.20
2018-10-02T00:48:17.247Z,1011.15
2018-10-02T00:49:25.760Z,1011.15
2018-10-02T00:53:47.911Z,1011.11
2018-10-02T00:55:50.901Z,1011.08
2018-10-02T00:57:09.750Z,1011.03
2018-10-02T00:58:00.850Z,1011.03
2018-10-02T00:59:11.819Z,1011.01
2018-10-02T01:00:28.016Z,1010.98
2018-10-02T01:01:20.540Z,1011.06
2018-10-02T01:02:27.511Z,1011.07
2018-10-02T01:03:38.174Z,1011.09
2018-10-02T01:04:47.393Z,1011.07
2018-10-02T01:05:44.737Z,1011.10
2018-10-02T01:06:56.113Z,1011.09
2018-10-02T01:07:52.536Z,1011.12
2018-10-02T01:09:04.526Z,1011.11
2018-10-02T01:10:11.090Z,1011.13
2018-10-02T01:11:10.281Z,1011.10
2018-10-02T01:12:29.032Z,1011.09
2018-10-02T01:13:16.749Z,1011.14
2018-10-02T01:14:38.778Z,1011.15
2018-10-02T01:15:34.992Z,1011.14
2018-10-02T01:16:49.031Z,1011.10
2018-10-02T01:17:51.905Z,1011.11
2018-10-02T01:19:52.437Z,1011.13
2018-10-02T01:21:08.835Z,1011.13
2018-10-02T01:23:15.909Z,1011.10
2018-10-02T01:24:11.831Z,1011.12
2018-10-02T01:25:30.672Z,1011.13
2018-10-02T01:28:48.827Z,1011.06
2018-10-02T01:29:47.300Z,1011.09
2018-10-02T01:31:04.926Z,1011.09
2018-10-02T01:31:56.842Z,1011.10
2018-10-02T01:33:18.359Z,1011.03
2018-10-02T01:34:10.381Z,1011.01
2018-10-02T01:35:20.935Z,1011.00
2018-10-02T01:36:24.528Z,1010.98
2018-10-02T01:37:21.873Z,1010.95
2018-10-02T01:39:43.295Z,1010.93
2018-10-02T01:40:40.641Z,1010.94
2018-10-02T01:41:51.608Z,1010.92
2018-10-02T01:42:45.876Z,1010.90
2018-10-02T01:43:54.281Z,1010.90
2018-10-02T01:46:11.809Z,1010.90
2018-10-02T01:47:17.452Z,1010.84
2018-10-02T01:48:21.354Z,1010.85
2018-10-02T01:49:20.340Z,1010.84
2018-10-02T01:50:32.122Z,1010.78
2018-10-02T01:51:42.371Z,1010.71
2018-10-02T01:52:42.484Z,1010.70
2018-10-02T01:54:53.050Z,1010.69
2018-10-02T01:55:58.695Z,1010.71
2018-10-02T01:57:04.025Z,1010.73
2018-10-02T01:58:18.984Z,1010.73
2018-10-02T01:59:19.925Z,1010.76
2018-10-02T02:00:20.437Z,1010.80
2018-10-02T02:01:25.054Z,1010.79
2018-10-02T02:02:31.105Z,1010.77
2018-10-02T02:04:56.624Z,1010.75
2018-10-02T02:06:10.250Z,1010.77
2018-10-02T02:06:56.946Z,1010.79
2018-10-02T02:08:04.742Z,1010.82
2018-10-02T02:09:12.837Z,1010.73
2018-10-02T02:10:14.180Z,1010.69
2018-10-02T02:11:08.966Z,1010.70
2018-10-02T02:12:26.282Z,1010.67
2018-10-02T02:15:32.042Z,1010.60
2018-10-02T02:16:43.726Z,1010.58
2018-10-02T02:17:45.169Z,1010.54
2018-10-02T02:19:11.701Z,1010.50
2018-10-02T02:21:03.936Z,1010.58
2018-10-02T02:22:15.823Z,1010.61
2018-10-02T02:23:22.692Z,1010.63
2018-10-02T02:24:20.140Z,1010.64
2018-10-02T02:26:33.471Z,1010.61
2018-10-02T02:27:45.258Z,1010.60
2018-10-02T02:28:50.692Z,1010.61
2018-10-02T02:29:46.810Z,1010.63
2018-10-02T02:30:54.396Z,1010.58
2018-10-02T02:32:05.271Z,1010.59
2018-10-02T02:33:08.650Z,1010.58
2018-10-02T02:34:15.522Z,1010.59
2018-10-02T02:35:12.459Z,1010.58
2018-10-02T02:36:19.944Z,1010.60
2018-10-02T02:37:37.999Z,1010.55
2018-10-02T02:38:47.507Z,1010.55
2018-10-02T02:39:36.249Z,1010.57
2018-10-02T02:40:45.784Z,1010.53
2018-10-02T02:41:52.550Z,1010.45
2018-10-02T02:42:51.125Z,1010.49
2018-10-02T02:44:02.706Z,1010.48
2018-10-02T02:45:05.478Z,1010.41
2018-10-02T02:47:19.541Z,1010.43
2018-10-02T02:49:26.406Z,1010.28
2018-10-02T02:50:50.270Z,1010.31
2018-10-02T02:51:42.392Z,1010.24
2018-10-02T02:52:44.333Z,1010.21
2018-10-02T02:53:58.288Z,1010.14
2018-10-02T02:54:57.164Z,1010.13
2018-10-02T02:56:00.964Z,1010.18
2018-10-02T02:57:17.156Z,1010.16
2018-10-02T02:58:17.986Z,1010.12
2018-10-02T02:59:23.327Z,1010.11
2018-10-02T03:00:33.983Z,1010.11
2018-10-02T03:02:31.230Z,1010.05
2018-10-02T03:03:46.802Z,1010.07
2018-10-02T03:04:43.640Z,1010.11
2018-10-02T03:08:02.917Z,1010.10
2018-10-02T03:09:06.633Z,1010.08
2018-10-02T03:10:20.962Z,1010.05
2018-10-02T03:11:11.149Z,1010.00
2018-10-02T03:12:35.108Z,1009.99
2018-10-02T03:13:34.707Z,1009.99
2018-10-02T03:14:34.101Z,1009.97
2018-10-02T03:15:38.718Z,1009.91
2018-10-02T03:16:56.049Z,1009.95
2018-10-02T03:17:54.199Z,1009.88
2018-10-02T03:19:13.254Z,1009.82
2018-10-02T03:20:10.196Z,1009.81
2018-10-02T03:21:17.062Z,1009.80
2018-10-02T03:22:10.310Z,1009.74
2018-10-02T03:23:17.797Z,1009.76
2018-10-02T03:25:36.350Z,1009.73
2018-10-02T03:26:34.720Z,1009.78
2018-10-02T03:27:48.049Z,1009.81
2018-10-02T03:30:01.177Z,1009.76
2018-10-02T03:30:53.908Z,1009.75
2018-10-02T03:32:19.416Z,1009.76
2018-10-02T03:33:22.905Z,1009.75
2018-10-02T03:34:10.934Z,1009.73
2018-10-02T03:35:34.289Z,1009.67
2018-10-02T03:36:26.213Z,1009.65
2018-10-02T03:37:38.307Z,1009.68
2018-10-02T03:39:47.025Z,1009.59
2018-10-02T03:40:44.706Z,1009.61
2018-10-02T03:41:55.029Z,1009.53
2018-10-02T03:43:01.079Z,1009.54
2018-10-02T03:44:04.672Z,1009.46
2018-10-02T03:46:08.989Z,1009.43
2018-10-02T03:47:28.251Z,1009.42
2018-10-02T03:48:31.028Z,1009.39
2018-10-02T03:49:39.638Z,1009.34
2018-10-02T03:50:47.327Z,1009.32
2018-10-02T03:51:39.560Z,1009.34
2018-10-02T03:52:57.482Z,1009.34
2018-10-02T03:54:03.842Z,1009.40
2018-10-02T03:55:06.521Z,1009.41
2018-10-02T03:56:07.549Z,1009.40
2018-10-02T03:57:09.705Z,1009.42
2018-10-02T03:58:15.449Z,1009.40
2018-10-02T04:00:17.317Z,1009.37
2018-10-02T04:01:38.003Z,1009.33
2018-10-02T04:02:32.996Z,1009.31
2018-10-02T04:03:53.797Z,1009.30
2018-10-02T04:04:50.422Z,1009.28
2018-10-02T04:05:56.781Z,1009.28
2018-10-02T04:07:00.065Z,1009.28
2018-10-02T04:09:07.148Z,1009.36
2018-10-02T04:10:19.754Z,1009.36
2018-10-02T04:11:15.871Z,1009.39
2018-10-02T04:13:34.731Z,1009.34
2018-10-02T04:14:39.350Z,1009.32
2018-10-02T04:15:51.750Z,1009.23
2018-10-02T04:18:54.539Z,1009.15
2018-10-02T04:20:05.302Z,1009.14
2018-10-02T04:21:05.106Z,1009.18
2018-10-02T04:22:29.389Z,1009.13
2018-10-02T04:23:20.181Z,1009.07
2018-10-02T04:24:31.862Z,1009.03
2018-10-02T04:25:37.093Z,1009.00
2018-10-02T04:26:38.023Z,1008.94
2018-10-02T04:27:46.961Z,1008.94
2018-10-02T04:28:50.229Z,1008.86
2018-10-02T04:31:10.017Z,1008.81
2018-10-02T04:32:06.638Z,1008.82
2018-10-02T04:33:19.551Z,1008.89
2018-10-02T04:34:20.691Z,1008.87
2018-10-02T04:36:22.445Z,1008.93
2018-10-02T04:37:39.349Z,1008.90
2018-10-02T04:38:40.279Z,1008.84
2018-10-02T04:39:46.435Z,1008.87
2018-10-02T04:40:50.547Z,1008.89
2018-10-02T04:42:01.504Z,1008.85
2018-10-02T04:43:01.114Z,1008.83
2018-10-02T04:44:07.259Z,1008.83
2018-10-02T04:45:19.355Z,1008.81
2018-10-02T04:46:28.165Z,1008.80
2018-10-02T04:47:26.228Z,1008.81
2018-10-02T04:48:31.972Z,1008.76
2018-10-02T04:49:37.714Z,1008.75
2018-10-02T04:51:44.590Z,1008.79
2018-10-02T04:52:49.716Z,1008.77
2018-10-02T04:53:55.050Z,1008.75
2018-10-02T04:55:01.388Z,1008.70
2018-10-02T04:56:06.849Z,1008.70
2018-10-02T04:57:12.382Z,1008.68
2018-10-02T04:58:15.565Z,1008.61
2018-10-02T04:59:27.461Z,1008.68
2018-10-02T05:00:30.838Z,1008.70
2018-10-02T05:02:39.456Z,1008.71
2018-10-02T05:03:47.452Z,1008.75
2018-10-02T05:06:04.162Z,1008.68
2018-10-02T05:07:09.194Z,1008.72
2018-10-02T05:09:14.944Z,1008.68
2018-10-02T05:11:21.833Z,1008.65
2018-10-02T05:13:32.691Z,1008.60
2018-10-02T05:14:46.726Z,1008.53
2018-10-02T05:15:48.886Z,1008.50
2018-10-02T05:18:05.499Z,1008.52
2018-10-02T05:19:05.609Z,1008.54
2018-10-02T05:20:10.844Z,1008.55
2018-10-02T05:21:11.467Z,1008.53
2018-10-02T05:22:15.768Z,1008.49
2018-10-02T05:23:25.404Z,1008.47
2018-10-02T05:24:30.634Z,1008.47
2018-10-02T05:25:31.669Z,1008.49
2018-10-02T05:26:54.206Z,1008.44
2018-10-02T05:27:59.336Z,1008.44
2018-10-02T05:29:58.029Z,1008.44
2018-10-02T05:30:57.108Z,1008.44
2018-10-02T05:32:04.902Z,1008.44
2018-10-02T05:33:15.358Z,1008.50
2018-10-02T05:34:30.009Z,1008.53
2018-10-02T05:35:29.780Z,1008.54
2018-10-02T05:37:43.247Z,1008.53
2018-10-02T05:39:53.093Z,1008.51
2018-10-02T05:40:54.843Z,1008.51
2018-10-02T05:42:03.147Z,1008.53
2018-10-02T05:43:10.323Z,1008.44
2018-10-02T05:44:14.634Z,1008.52
2018-10-02T05:45:14.336Z,1008.54
2018-10-02T05:46:12.510Z,1008.57
2018-10-02T05:48:28.493Z,1008.54
2018-10-02T05:49:46.322Z,1008.54
2018-10-02T05:50:45.002Z,1008.56
2018-10-02T05:54:02.744Z,1008.54
2018-10-02T05:54:59.169Z,1008.54
2018-10-02T05:56:12.796Z,1008.54
2018-10-02T05:57:23.863Z,1008.50
2018-10-02T05:58:14.661Z,1008.45
2018-10-02T05:59:31.052Z,1008.44
2018-10-02T06:00:46.827Z,1008.45
2018-10-02T06:01:38.028Z,1008.47
2018-10-02T06:02:51.356Z,1008.39
2018-10-02T06:03:49.878Z,1008.36
2018-10-02T06:04:59.251Z,1008.29
2018-10-02T06:05:55.778Z,1008.27
2018-10-02T06:08:26.721Z,1008.27
2018-10-02T06:09:16.901Z,1008.24
2018-10-02T06:10:22.439Z,1008.15
2018-10-02T06:11:27.055Z,1008.13
2018-10-02T06:12:34.490Z,1008.07
2018-10-02T06:13:33.219Z,1008.08
2018-10-02T06:14:47.977Z,1008.06
2018-10-02T06:15:52.080Z,1008.03
2018-10-02T06:16:49.019Z,1007.95
2018-10-02T06:18:10.230Z,1007.90
2018-10-02T06:19:05.624Z,1007.93
2018-10-02T06:20:12.084Z,1007.90
2018-10-02T06:21:21.618Z,1007.88
2018-10-02T06:22:23.066Z,1007.88
2018-10-02T06:23:28.497Z,1007.84
2018-10-02T06:25:35.888Z,1007.86
2018-10-02T06:26:46.446Z,1007.83
2018-10-02T06:27:52.498Z,1007.78
2018-10-02T06:28:49.740Z,1007.78
2018-10-02T06:30:04.698Z,1007.79
2018-10-02T06:31:08.291Z,1007.76
2018-10-02T06:32:13.523Z,1007.89
2018-10-02T06:33:27.559Z,1007.84
2018-10-02T06:34:28.390Z,1007.73
2018-10-02T06:35:26.259Z,1007.72
2018-10-02T06:36:40.751Z,1007.74
2018-10-02T06:37:58.453Z,1007.79
2018-10-02T06:38:54.290Z,1007.80
2018-10-02T06:39:56.390Z,1007.84
2018-10-02T06:40:46.982Z,1007.81
2018-10-02T06:42:00.608Z,1007.85
2018-10-02T06:43:10.858Z,1007.82
2018-10-02T06:44:13.834Z,1007.77
2018-10-02T06:45:18.967Z,1007.73
2018-10-02T06:46:20.715Z,1007.72
2018-10-02T06:47:28.504Z,1007.75
2018-10-02T06:48:35.579Z,1007.76
2018-10-02T06:49:36.521Z,1007.76
2018-10-02T06:50:51.812Z,1007.72
2018-10-02T06:52:03.223Z,1007.75
2018-10-02T06:53:04.391Z,1007.71
2018-10-02T06:53:57.748Z,1007.65
2018-10-02T06:55:05.436Z,1007.67
2018-10-02T06:56:15.070Z,1007.69
2018-10-02T06:57:20.305Z,1007.62
2018-10-02T06:59:40.285Z,1007.55
2018-10-02T07:00:32.978Z,1007.56
2018-10-02T07:01:51.671Z,1007.57
2018-10-02T07:02:46.972Z,1007.58
2018-10-02T07:03:55.684Z,1007.56
2018-10-02T07:04:57.534Z,1007.63
2018-10-02T07:07:17.933Z,1007.66
2018-10-02T07:08:19.692Z,1007.63
2018-10-02T07:09:27.374Z,1007.59
2018-10-02T07:10:17.449Z,1007.62
2018-10-02T07:12:49.119Z,1007.52
2018-10-02T07:14:48.740Z,1007.52
2018-10-02T07:16:00.704Z,1007.48
2018-10-02T07:16:59.588Z,1007.60
2018-10-02T07:20:17.952Z,1007.62
2018-10-02T07:21:23.897Z,1007.53
2018-10-02T07:22:34.043Z,1007.54
2018-10-02T07:23:35.691Z,1007.48
2018-10-02T07:24:44.815Z,1007.49
2018-10-02T07:25:48.507Z,1007.42
2018-10-02T07:26:49.333Z,1007.45
2018-10-02T07:27:51.600Z,1007.34
2018-10-02T07:28:53.960Z,1007.32
2018-10-02T07:30:07.593Z,1007.35
2018-10-02T07:31:17.430Z,1007.40
2018-10-02T07:32:13.340Z,1007.35
2018-10-02T07:33:22.567Z,1007.37
2018-10-02T07:34:20.118Z,1007.49
2018-10-02T07:35:33.542Z,1007.48
2018-10-02T07:36:32.570Z,1007.47
2018-10-02T07:37:39.295Z,1007.57
2018-10-02T07:38:44.392Z,1007.56
2018-10-02T07:39:52.935Z,1007.50
2018-10-02T07:41:01.237Z,1007.46
2018-10-02T07:42:15.177Z,1007.54
2018-10-02T07:43:09.820Z,1007.61
2018-10-02T07:44:13.213Z,1007.63
2018-10-02T07:45:24.844Z,1007.71
2018-10-02T07:46:29.457Z,1007.77
2018-10-02T07:47:31.867Z,1007.77
2018-10-02T07:49:47.596Z,1007.71
2018-10-02T07:50:48.222Z,1007.66
2018-10-02T07:52:00.628Z,1007.61
2018-10-02T07:52:58.069Z,1007.62
2018-10-02T07:55:23.384Z,1007.58
2018-10-02T07:56:22.264Z,1007.53
2018-10-02T07:57:22.473Z,1007.54
2018-10-02T07:58:18.694Z,1007.55
2018-10-02T07:59:35.457Z,1007.46
2018-10-02T08:00:41.856Z,1007.46
2018-10-02T08:01:48.219Z,1007.49
2018-10-02T08:02:50.388Z,1007.44
2018-10-02T08:03:46.082Z,1007.43
2018-10-02T08:05:04.309Z,1007.35
2018-10-02T08:06:07.841Z,1007.36
2018-10-02T08:07:13.965Z,1007.37
2018-10-02T08:08:19.711Z,1007.50
2018-10-02T08:09:22.175Z,1007.49
2018-10-02T08:11:41.270Z,1007.45
2018-10-02T08:12:37.770Z,1007.31
2018-10-02T08:13:54.368Z,1007.36
2018-10-02T08:14:49.370Z,1007.30
2018-10-02T08:16:00.938Z,1007.27
2018-10-02T08:19:08.643Z,1007.42
2018-10-02T08:21:24.532Z,1007.46
2018-10-02T08:22:30.175Z,1007.50
2018-10-02T08:23:30.291Z,1007.42
2018-10-02T08:24:37.051Z,1007.45
2018-10-02T08:25:48.020Z,1007.46
2018-10-02T08:26:54.727Z,1007.38
2018-10-02T08:27:53.057Z,1007.36
2018-10-02T08:30:10.771Z,1007.35
2018-10-02T08:31:10.999Z,1007.34
2018-10-02T08:32:20.994Z,1007.37
2018-10-02T08:33:18.495Z,1007.43
2018-10-02T08:35:35.833Z,1007.25
2018-10-02T08:36:46.785Z,1007.21
2018-10-02T08:37:47.102Z,1007.26
2018-10-02T08:38:56.481Z,1007.24
2018-10-02T08:39:58.281Z,1007.21
2018-10-02T08:41:00.137Z,1007.24
2018-10-02T08:42:04.342Z,1007.22
2018-10-02T08:43:18.422Z,1007.18
2018-10-02T08:44:24.467Z,1007.19
2018-10-02T08:45:31.004Z,1007.17
2018-10-02T08:46:35.101Z,1007.19
2018-10-02T08:47:39.118Z,1007.20
2018-10-02T08:48:40.954Z,1007.17
2018-10-02T08:50:55.963Z,1007.14
2018-10-02T08:53:00.751Z,1007.03
2018-10-02T08:54:13.563Z,1007.13
2018-10-02T08:55:12.040Z,1007.09
2018-10-02T08:56:22.895Z,1007.03
2018-10-02T08:57:20.858Z,1007.04
2018-10-02T08:58:32.957Z,1007.03
2018-10-02T08:59:34.290Z,1007.03
2018-10-02T09:00:44.308Z,1006.98
2018-10-02T09:04:02.281Z,1006.95
2018-10-02T09:05:06.591Z,1006.92
2018-10-02T09:06:16.228Z,1006.86
2018-10-02T09:09:25.065Z,1006.85
2018-10-02T09:10:42.068Z,1006.82
2018-10-02T09:11:42.487Z,1006.87
2018-10-02T09:12:39.996Z,1006.79
2018-10-02T09:13:48.408Z,1006.76
2018-10-02T09:16:02.635Z,1006.79
2018-10-02T09:18:10.801Z,1006.73
2018-10-02T09:19:18.903Z,1006.74
2018-10-02T09:20:23.826Z,1006.76
2018-10-02T09:21:31.983Z,1006.63
2018-10-02T09:22:30.603Z,1006.70
2018-10-02T09:23:39.417Z,1006.55
2018-10-02T09:24:42.493Z,1006.62
2018-10-02T09:25:51.107Z,1006.73
2018-10-02T09:26:57.368Z,1006.64
2018-10-02T09:28:04.261Z,1006.65
2018-10-02T09:29:15.098Z,1006.63
2018-10-02T09:30:04.154Z,1006.56
2018-10-02T09:31:25.353Z,1006.53
2018-10-02T09:32:17.178Z,1006.53
2018-10-02T09:33:29.164Z,1006.42
2018-10-02T09:34:30.098Z,1006.46
2018-10-02T09:35:39.316Z,1006.51
2018-10-02T09:36:39.301Z,1006.42
2018-10-02T09:37:45.283Z,1006.49
2018-10-02T09:41:05.068Z,1006.57
2018-10-02T09:42:11.635Z,1006.69
2018-10-02T09:44:19.223Z,1006.62
2018-10-02T09:46:49.972Z,1006.69
2018-10-02T09:47:39.834Z,1006.67
2018-10-02T09:49:58.758Z,1006.68
2018-10-02T09:54:13.781Z,1006.60
2018-10-02T09:55:24.031Z,1006.62
2018-10-02T09:56:25.016Z,1006.66
2018-10-02T09:57:29.782Z,1006.60
2018-10-02T09:58:34.098Z,1006.56
2018-10-02T09:59:39.529Z,1006.59
2018-10-02T10:00:43.167Z,1006.56
2018-10-02T10:03:05.153Z,1006.53
2018-10-02T10:05:04.660Z,1006.56
2018-10-02T10:06:34.673Z,1006.56
2018-10-02T10:07:26.286Z,1006.56
2018-10-02T10:08:20.970Z,1006.49
2018-10-02T10:09:41.662Z,1006.52
2018-10-02T10:10:29.396Z,1006.51
2018-10-02T10:11:36.665Z,1006.44
2018-10-02T10:12:56.434Z,1006.40
2018-10-02T10:13:55.424Z,1006.40
2018-10-02T10:14:53.687Z,1006.43
2018-10-02T10:16:04.142Z,1006.36
2018-10-02T10:17:08.861Z,1006.37
2018-10-02T10:19:23.215Z,1006.29
2018-10-02T10:21:30.707Z,1006.26
2018-10-02T10:22:37.665Z,1006.28
2018-10-02T10:25:15.076Z,1006.19
2018-10-02T10:25:51.429Z,1006.23
2018-10-02T10:27:04.852Z,1006.26
2018-10-02T10:28:05.066Z,1006.19
2018-10-02T10:29:09.790Z,1006.17
2018-10-02T10:30:10.620Z,1006.20
2018-10-02T10:31:22.922Z,1006.19
2018-10-02T10:34:36.413Z,1006.21
2018-10-02T10:35:42.305Z,1006.21
2018-10-02T10:36:58.599Z,1006.18
2018-10-02T10:37:47.857Z,1006.17
2018-10-02T10:39:58.074Z,1006.24
2018-10-02T10:41:10.207Z,1006.25
2018-10-02T10:42:23.838Z,1006.22
2018-10-02T10:43:21.488Z,1006.30
2018-10-02T10:44:49.049Z,1006.26
2018-10-02T10:45:33.796Z,1006.26
2018-10-02T10:46:36.398Z,1006.27
2018-10-02T10:47:49.217Z,1006.32
2018-10-02T10:48:48.879Z,1006.29
2018-10-02T10:50:00.049Z,1006.29
2018-10-02T10:50:52.896Z,1006.33
2018-10-02T10:52:08.259Z,1006.27
2018-10-02T10:53:16.767Z,1006.23
2018-10-02T10:55:18.836Z,1006.26
2018-10-02T10:58:35.603Z,1006.26
2018-10-02T10:59:50.923Z,1006.24
2018-10-02T11:00:49.907Z,1006.15
2018-10-02T11:01:57.696Z,1006.26
2018-10-02T11:02:54.461Z,1006.27
2018-10-02T11:04:02.528Z,1006.20
2018-10-02T11:05:13.605Z,1006.18
2018-10-02T11:06:18.008Z,1006.20
2018-10-02T11:07:28.976Z,1006.19
2018-10-02T11:08:36.767Z,1006.18
2018-10-02T11:10:36.887Z,1006.16
2018-10-02T11:11:55.643Z,1006.15
2018-10-02T11:12:54.217Z,1006.17
2018-10-02T11:15:57.826Z,1006.20
2018-10-02T11:17:20.059Z,1006.16
2018-10-02T11:18:20.475Z,1006.21
2018-10-02T11:19:14.039Z,1006.20
2018-10-02T11:20:35.447Z,1006.14
2018-10-02T11:21:36.485Z,1006.13
2018-10-02T11:22:40.600Z,1006.18
2018-10-02T11:23:40.792Z,1006.11
2018-10-02T11:24:42.346Z,1006.18
2018-10-02T11:25:49.361Z,1006.12
2018-10-02T11:28:11.558Z,1006.12
2018-10-02T11:29:21.082Z,1006.16
2018-10-02T11:30:17.203Z,1006.17
2018-10-02T11:31:15.611Z,1006.19
2018-10-02T11:33:29.009Z,1006.21
2018-10-02T11:34:43.454Z,1006.19
2018-10-02T11:35:44.180Z,1006.15
2018-10-02T11:36:51.458Z,1006.12
2018-10-02T11:37:56.382Z,1006.04
2018-10-02T11:39:06.730Z,1006.04
2018-10-02T11:40:19.406Z,1006.07
2018-10-02T11:41:16.376Z,1006.06
2018-10-02T11:42:20.623Z,1006.04
2018-10-02T11:43:28.915Z,1006.04
2018-10-02T11:44:30.199Z,1006.01
2018-10-02T11:45:36.479Z,1006.02
2018-10-02T11:47:54.419Z,1005.98
2018-10-02T11:48:56.779Z,1005.95
2018-10-02T11:50:01.685Z,1005.95
2018-10-02T11:51:03.138Z,1006.01
2018-10-02T11:52:11.553Z,1005.87
2018-10-02T11:53:14.533Z,1005.95
2018-10-02T11:54:32.666Z,1005.97
2018-10-02T11:55:33.347Z,1005.93
2018-10-02T11:56:33.610Z,1005.97
2018-10-02T11:57:33.164Z,1005.94
2018-10-02T11:59:58.620Z,1005.81
2018-10-02T12:01:04.049Z,1005.87
2018-10-02T12:03:34.909Z,1005.79
2018-10-02T12:04:25.897Z,1005.84
2018-10-02T12:06:24.986Z,1005.83
2018-10-02T12:10:55.746Z,1005.90
2018-10-02T12:11:53.299Z,1005.85
2018-10-02T12:12:51.468Z,1005.82
2018-10-02T12:14:14.079Z,1005.82
2018-10-02T12:15:14.951Z,1005.83
2018-10-02T12:16:24.672Z,1005.79
2018-10-02T12:18:56.537Z,1005.70
2018-10-02T12:21:35.875Z,1005.67
2018-10-02T12:23:00.258Z,1005.67
2018-10-02T12:24:59.557Z,1005.70
2018-10-02T12:26:07.453Z,1005.67
2018-10-02T12:27:15.553Z,1005.69
2018-10-02T12:28:36.966Z,1005.63
2018-10-02T12:29:29.909Z,1005.61
2018-10-02T12:30:44.152Z,1005.52
2018-10-02T12:31:20.554Z,1005.58
2018-10-02T12:33:35.579Z,1005.56
2018-10-02T12:37:04.687Z,1005.53
2018-10-02T12:38:15.652Z,1005.46
2018-10-02T12:40:14.653Z,1005.56
2018-10-02T12:41:26.331Z,1005.48
2018-10-02T12:42:26.547Z,1005.51
2018-10-02T12:43:37.921Z,1005.56
2018-10-02T12:44:25.952Z,1005.55
2018-10-02T12:46:48.303Z,1005.57
2018-10-02T12:47:41.750Z,1005.57
2018-10-02T12:48:48.310Z,1005.61
2018-10-02T12:50:20.578Z,1005.50
2018-10-02T12:51:08.610Z,1005.56
2018-10-02T12:54:30.337Z,1005.50
2018-10-02T12:57:38.457Z,1005.56
2018-10-02T12:58:41.636Z,1005.51
2018-10-02T12:59:44.205Z,1005.51
2018-10-02T13:01:01.933Z,1005.41
2018-10-02T13:01:58.773Z,1005.40
2018-10-02T13:03:18.435Z,1005.52
2018-10-02T13:05:20.706Z,1005.46
2018-10-02T13:06:19.694Z,1005.48
2018-10-02T13:07:40.796Z,1005.48
2018-10-02T13:08:34.048Z,1005.48
2018-10-02T13:09:38.463Z,1005.54
2018-10-02T13:11:52.401Z,1005.49
2018-10-02T13:13:06.475Z,1005.49
2018-10-02T13:14:09.421Z,1005.48
2018-10-02T13:15:01.647Z,1005.55
2018-10-02T13:16:25.948Z,1005.51
2018-10-02T13:17:25.012Z,1005.53
2018-10-02T13:19:29.372Z,1005.58
2018-10-02T13:20:34.154Z,1005.58
2018-10-02T13:22:46.869Z,1005.60
2018-10-02T13:24:07.464Z,1005.63
2018-10-02T13:26:02.157Z,1005.66
2018-10-02T13:27:12.303Z,1005.66
2018-10-02T13:29:09.146Z,1005.68
2018-10-02T13:30:26.057Z,1005.64
2018-10-02T13:31:37.735Z,1005.64
2018-10-02T13:32:42.454Z,1005.66
2018-10-02T13:33:42.273Z,1005.72
2018-10-02T13:34:41.645Z,1005.64
2018-10-02T13:37:01.844Z,1005.79
2018-10-02T13:39:09.338Z,1005.77
2018-10-02T13:41:22.978Z,1005.80
2018-10-02T13:42:29.850Z,1005.73
2018-10-02T13:43:37.645Z,1005.75
2018-10-02T13:44:37.911Z,1005.77
2018-10-02T13:45:42.063Z,1005.79
2018-10-02T13:46:49.952Z,1005.85
2018-10-02T13:47:49.551Z,1005.83
2018-10-02T13:50:10.258Z,1005.79
2018-10-02T13:51:14.263Z,1005.83
2018-10-02T13:53:24.623Z,1005.90
2018-10-02T13:54:23.399Z,1005.84
2018-10-02T13:55:33.545Z,1005.85
2018-10-02T13:56:45.943Z,1005.86
2018-10-02T13:57:41.659Z,1005.88
2018-10-02T13:58:46.474Z,1005.87
2018-10-02T13:59:53.548Z,1005.87
2018-10-02T14:00:53.355Z,1005.86
2018-10-02T14:02:11.177Z,1005.80
2018-10-02T14:03:09.242Z,1005.87
2018-10-02T14:04:14.374Z,1005.87
2018-10-02T14:05:20.012Z,1005.84
2018-10-02T14:06:23.095Z,1005.79
2018-10-02T14:07:18.396Z,1005.76
2018-10-02T14:09:44.635Z,1005.81
2018-10-02T14:10:46.071Z,1005.87
2018-10-02T14:11:56.014Z,1005.87
2018-10-02T14:13:06.056Z,1005.85
2018-10-02T14:15:13.446Z,1005.80
2018-10-02T14:16:22.474Z,1005.84
2018-10-02T14:17:23.091Z,1005.82
2018-10-02T14:18:21.461Z,1005.77
2018-10-02T14:19:32.427Z,1005.77
2018-10-02T14:20:40.119Z,1005.74
2018-10-02T14:21:30.043Z,1005.73
2018-10-02T14:23:52.122Z,1005.71
2018-10-02T14:25:07.290Z,1005.72
2018-10-02T14:26:13.953Z,1005.68
2018-10-02T14:27:19.083Z,1005.70
2018-10-02T14:30:30.068Z,1005.61
2018-10-02T14:31:34.990Z,1005.69
2018-10-02T14:32:55.691Z,1005.65
2018-10-02T14:33:53.645Z,1005.66
2018-10-02T14:34:48.123Z,1005.61
2018-10-02T14:35:56.834Z,1005.60
2018-10-02T14:36:58.076Z,1005.60
2018-10-02T14:38:09.039Z,1005.69
2018-10-02T14:40:19.915Z,1005.74
2018-10-02T14:41:19.824Z,1005.74
2018-10-02T14:42:39.899Z,1005.73
2018-10-02T14:43:57.625Z,1005.73
2018-10-02T14:44:55.381Z,1005.72
2018-10-02T14:47:07.793Z,1005.74
2018-10-02T14:47:52.549Z,1005.72
2018-10-02T14:49:06.576Z,1005.70
2018-10-02T14:50:03.206Z,1005.70
2018-10-02T14:51:21.442Z,1005.71
2018-10-02T14:53:24.536Z,1005.78
2018-10-02T14:55:38.376Z,1005.81
2018-10-02T14:56:42.995Z,1005.84
2018-10-02T14:57:52.114Z,1005.75
2018-10-02T14:59:13.972Z,1005.79
2018-10-02T15:00:01.656Z,1005.73
2018-10-02T15:01:00.026Z,1005.77
2018-10-02T15:02:08.228Z,1005.72
2018-10-02T15:04:21.364Z,1005.82
2018-10-02T15:05:32.423Z,1005.79
2018-10-02T15:06:28.542Z,1005.80
2018-10-02T15:07:36.330Z,1005.81
2018-10-02T15:08:52.314Z,1005.84
2018-10-02T15:11:02.074Z,1005.86
2018-10-02T15:12:04.021Z,1005.87
2018-10-02T15:13:03.923Z,1005.83
2018-10-02T15:14:15.203Z,1005.82
2018-10-02T15:15:15.002Z,1005.81
2018-10-02T15:16:16.034Z,1005.83
2018-10-02T15:17:39.907Z,1005.80
2018-10-02T15:18:31.820Z,1005.78
2018-10-02T15:19:35.718Z,1005.79
2018-10-02T15:20:40.956Z,1005.73
2018-10-02T15:21:41.366Z,1005.81
2018-10-02T15:23:54.769Z,1005.83
2018-10-02T15:25:15.696Z,1005.79
2018-10-02T15:26:02.597Z,1005.79
2018-10-02T15:27:25.544Z,1005.83
2018-10-02T15:28:32.320Z,1005.74
2018-10-02T15:30:35.203Z,1005.83
2018-10-02T15:32:41.664Z,1005.89
2018-10-02T15:33:58.672Z,1005.95
2018-10-02T15:34:54.994Z,1005.84
2018-10-02T15:35:57.873Z,1005.82
2018-10-02T15:37:16.627Z,1005.85
2018-10-02T15:38:03.991Z,1005.82
2018-10-02T15:39:15.714Z,1005.80
2018-10-02T15:40:56.844Z,1005.83
2018-10-02T15:41:25.566Z,1005.84
2018-10-02T15:42:55.788Z,1005.84
2018-10-02T15:44:00.816Z,1005.80
2018-10-02T15:45:12.187Z,1005.79
2018-10-02T15:46:45.577Z,1005.77
2018-10-02T15:48:14.163Z,1005.81
2018-10-02T15:50:31.496Z,1005.78